Terminal Aerodrome Forecast
Issued by NWS

Home | Current Version | Previous Version | Text Only | Print | Product List | Glossary On
Versions: 1 2 3 4 5 6 7 8 9 10 11 12 13 14 15 16 17 18
960
FTUS46 KSTO 231524 AAA
TAFSAC
TAF AMD
KSAC 231524Z 2315/2412 11003KT 3SM BCFG BR FEW002
      TEMPO 2315/2317 1/4SM FG OVC003
     FM231700 21007KT P6SM BKN250
     FM240300 19006KT P6SM OVC100
     FM241000 18007KT P6SM -RA OVC050=

USA.gov is the U.S. government's official web portal to all federal, state and local government web resources and services.